KFIN

Flagler Executive Airport

Palm Coast, Florida, USA
METAR KFIN 191450Z 03005KT 2SM BR OVC003 19/19 A3015
Observed Flight Rules
Nov-19 @ 14:50 UTC (an hour ago) Instrument Flight Rules
Wind Visibility Clouds Conditions
30° at 5 knots 2 miles
  • Overcast at 300' AGL
  • Mist
Temperatures Readings
Current 19°C / 66°F
Dewpoint 19°C / 66°F
Humidity 100%
Altimeter 30.15" Hg
Pressure 1021 hPa
Elevation 10
METAR KFIN 191450Z 03005KT 2SM BR OVC003 19/19 A3015
Observed Flight Rules
Nov-19 @ 14:50 UTC
(an hour ago)
LIFR
Wind Visibility
30° at 5 knots 2 miles
Clouds
  • Overcast at 300' AGL
Conditions
  • Mist
Temperature Dewpoint
19°C / 66°F 19°C / 66°F
Humidity Altimeter Pressure
100% 30.15" Hg 1021 hPa